Kingsford Heights, Indiana
Current Conditions -  °F | °C
As of 6:55 PM on Saturday 25 Oct 2014 (Local Time) from KPPO Reporting Station
Clear Clear  
Wind Chill: 61°   Ceiling: Unl
Heat Index: 61°   Visibility: 10mi
Dew Point: 38°   Wind: 5mph
Humidity: 43%   Direction: 290°WNW
Pressure: 29.91"   Gusts: NA
Location:  41.48°N, 86.69°W
Report Text: KPPO 252355Z AUTO 29004KT 10SM CLR 16/03 A2991 RMK AO2 T01600034 10215 20157
Loading
Personal Weather Stations






























Interactive Weather Map
Tropical Storm Tracking
New forecast layout! Learn more

10-Day Weather Forecast

Advertisements
Track Severe Weather on mobile